createdAt,value
2022-09-06T00:00:43.547Z,21.30
2022-09-06T00:03:10.372Z,21.30
2022-09-06T00:05:37.173Z,21.20
2022-09-06T00:08:05.622Z,21.20
2022-09-06T00:10:32.777Z,21.20
2022-09-06T00:13:04.598Z,21.20
2022-09-06T00:15:31.895Z,21.10
2022-09-06T00:17:59.874Z,21.10
2022-09-06T00:20:27.607Z,21.10
2022-09-06T00:22:58.207Z,21.10
2022-09-06T00:25:25.577Z,21.10
2022-09-06T00:27:56.093Z,21.00
2022-09-06T00:30:23.490Z,21.00
2022-09-06T00:32:50.498Z,21.00
2022-09-06T00:35:18.178Z,21.00
2022-09-06T00:37:45.284Z,21.00
2022-09-06T00:40:12.559Z,20.90
2022-09-06T00:42:39.565Z,20.90
2022-09-06T00:45:07.407Z,20.90
2022-09-06T00:47:35.319Z,20.90
2022-09-06T00:50:02.643Z,20.90
2022-09-06T00:52:30.390Z,20.90
2022-09-06T00:54:57.383Z,20.90
2022-09-06T00:57:27.220Z,20.90
2022-09-06T00:59:54.713Z,20.90
2022-09-06T01:02:21.740Z,20.90
2022-09-06T01:04:49.229Z,20.90
2022-09-06T01:07:34.158Z,20.80
2022-09-06T01:10:12.942Z,20.80
2022-09-06T01:12:58.674Z,20.70
2022-09-06T01:15:28.400Z,20.70
2022-09-06T01:17:57.973Z,20.60
2022-09-06T01:20:42.918Z,20.60
2022-09-06T01:23:36.627Z,20.60
2022-09-06T01:26:24.557Z,20.50
2022-09-06T01:28:52.871Z,20.50
2022-09-06T01:31:19.659Z,20.50
2022-09-06T01:33:46.407Z,20.50
2022-09-06T01:36:17.307Z,20.50
2022-09-06T01:38:44.228Z,20.50
2022-09-06T01:41:11.169Z,20.50
2022-09-06T01:43:39.749Z,20.50
2022-09-06T01:46:12.273Z,20.40
2022-09-06T01:48:46.443Z,20.50
2022-09-06T01:51:22.022Z,20.40
2022-09-06T01:54:00.265Z,20.40
2022-09-06T01:56:27.117Z,20.40
2022-09-06T01:59:08.982Z,20.40
2022-09-06T02:01:38.805Z,20.30
2022-09-06T02:04:24.392Z,20.40
2022-09-06T02:06:54.784Z,20.40
2022-09-06T02:09:23.729Z,20.30
2022-09-06T02:11:53.964Z,20.30
2022-09-06T02:14:23.289Z,20.20
2022-09-06T02:16:50.975Z,20.00
2022-09-06T02:19:20.753Z,20.00
2022-09-06T02:21:48.429Z,19.90
2022-09-06T02:24:20.813Z,19.90
2022-09-06T02:26:47.806Z,19.90
2022-09-06T02:29:15.282Z,19.80
2022-09-06T02:31:50.712Z,19.80
2022-09-06T02:34:18.379Z,19.80
2022-09-06T02:36:45.555Z,19.80
2022-09-06T02:39:12.688Z,19.80
2022-09-06T02:41:40.994Z,19.70
2022-09-06T02:44:07.823Z,19.60
2022-09-06T07:45:04.289Z,26.30
2022-09-06T07:48:01.152Z,26.50
2022-09-06T07:53:10.911Z,27.00
2022-09-06T07:55:42.741Z,27.00
2022-09-06T07:58:10.023Z,27.00
2022-09-06T08:00:38.448Z,27.10
2022-09-06T08:03:05.320Z,27.20
2022-09-06T08:11:07.733Z,27.30
2022-09-06T08:13:35.049Z,27.40
2022-09-06T08:16:02.938Z,27.30
2022-09-06T08:18:29.948Z,27.40
2022-09-06T08:20:56.719Z,27.60
2022-09-06T08:23:23.667Z,27.60
2022-09-06T08:25:57.703Z,27.60
2022-09-06T08:28:28.135Z,27.80
2022-09-06T08:30:55.575Z,28.00
2022-09-06T08:33:25.538Z,28.10
2022-09-06T08:35:56.500Z,27.80
2022-09-06T08:38:23.308Z,27.80
2022-09-06T08:40:50.970Z,27.90
2022-09-06T08:43:19.085Z,27.90
2022-09-06T08:45:47.329Z,27.80
2022-09-06T08:48:14.303Z,27.80
2022-09-06T08:50:44.074Z,27.90
2022-09-06T08:53:17.646Z,28.20
2022-09-06T08:55:52.919Z,28.30
2022-09-06T08:58:19.661Z,28.20
2022-09-06T09:00:58.809Z,28.30
2022-09-06T09:03:29.826Z,28.20
2022-09-06T09:05:56.654Z,28.20
2022-09-06T09:08:23.440Z,28.10
2022-09-06T09:10:52.847Z,28.00
2022-09-06T09:13:33.811Z,28.20
2022-09-06T09:16:00.679Z,28.50
2022-09-06T09:18:30.262Z,28.70
2022-09-06T09:20:59.774Z,29.20
2022-09-06T09:23:27.625Z,29.30
2022-09-06T09:25:55.735Z,29.70
2022-09-06T09:28:23.676Z,29.80
2022-09-06T09:30:54.970Z,30.00
2022-09-06T09:33:23.265Z,30.20
2022-09-06T09:35:50.343Z,30.30
2022-09-06T09:38:21.801Z,30.50
2022-09-06T09:40:52.559Z,30.70
2022-09-06T09:43:26.733Z,31.00
2022-09-06T09:46:12.566Z,31.00
2022-09-06T09:48:39.951Z,31.00
2022-09-06T09:51:25.516Z,31.40
2022-09-06T09:53:59.814Z,31.70
2022-09-06T09:56:44.260Z,31.40
2022-09-06T09:59:30.281Z,31.30
2022-09-06T10:02:00.140Z,31.40
2022-09-06T10:04:45.831Z,31.50
2022-09-06T10:07:12.928Z,31.80
2022-09-06T10:09:41.108Z,31.90
2022-09-06T10:12:08.297Z,31.90
2022-09-06T10:15:04.877Z,31.80
2022-09-06T10:17:35.064Z,31.90
2022-09-06T10:20:08.072Z,31.90
2022-09-06T10:22:51.973Z,32.00
2022-09-06T10:25:42.964Z,32.10
2022-09-06T10:28:18.844Z,32.20
2022-09-06T10:31:04.346Z,32.00
2022-09-06T10:33:54.000Z,31.60
2022-09-06T10:36:24.839Z,31.50
2022-09-06T10:38:51.583Z,31.40
2022-09-06T10:41:25.151Z,31.50
2022-09-06T10:44:09.417Z,31.50
2022-09-06T10:46:37.006Z,31.50
2022-09-06T10:49:03.858Z,31.50
2022-09-06T10:51:36.446Z,31.40
2022-09-06T10:54:08.201Z,31.20
2022-09-06T10:56:42.084Z,31.10
2022-09-06T11:02:08.783Z,31.20
2022-09-06T11:07:34.612Z,30.50
2022-09-06T11:10:24.576Z,30.00
2022-09-06T11:12:58.863Z,30.00
2022-09-06T11:15:28.071Z,30.00
2022-09-06T11:18:02.611Z,30.00
2022-09-06T11:20:33.862Z,30.00
2022-09-06T11:23:19.299Z,30.30
2022-09-06T11:25:51.348Z,30.50
2022-09-06T11:28:29.589Z,30.50
2022-09-06T11:30:58.105Z,30.50
2022-09-06T11:33:26.168Z,30.50
2022-09-06T11:35:53.495Z,30.60
2022-09-06T11:38:25.643Z,30.50
2022-09-06T11:40:57.907Z,30.50
2022-09-06T11:43:43.404Z,30.40
2022-09-06T11:46:10.244Z,30.50
2022-09-06T11:49:00.452Z,30.70
2022-09-06T11:51:46.777Z,30.90
2022-09-06T11:54:16.634Z,30.80
2022-09-06T11:56:46.216Z,30.90
2022-09-06T11:59:23.334Z,31.00
2022-09-06T12:01:56.054Z,31.10
2022-09-06T12:04:23.635Z,31.30
2022-09-06T12:07:09.601Z,31.40
2022-09-06T12:09:40.825Z,31.50
2022-09-06T12:12:08.125Z,31.40
2022-09-06T12:14:36.788Z,31.20
2022-09-06T12:17:07.246Z,31.20
2022-09-06T12:19:47.458Z,31.20
2022-09-06T12:22:29.508Z,31.10
2022-09-06T12:25:02.157Z,31.10
2022-09-06T12:27:33.380Z,31.20
2022-09-06T12:30:01.899Z,31.40
2022-09-06T12:32:36.217Z,31.50
2022-09-06T12:37:56.932Z,31.10
2022-09-06T12:40:25.499Z,31.00
2022-09-06T12:42:53.125Z,31.00
2022-09-06T12:45:27.223Z,31.10
2022-09-06T12:48:08.654Z,31.10
2022-09-06T12:50:35.529Z,31.30
2022-09-06T12:53:03.598Z,31.20
2022-09-06T12:55:34.690Z,31.00
2022-09-06T12:58:05.685Z,31.10
2022-09-06T13:00:47.240Z,31.20
2022-09-06T13:03:27.631Z,31.40
2022-09-06T13:05:55.372Z,31.50
2022-09-06T13:08:28.498Z,31.50
2022-09-06T13:10:55.626Z,31.50
2022-09-06T13:13:23.207Z,31.40
2022-09-06T13:15:50.182Z,31.30
2022-09-06T13:18:20.034Z,31.30
2022-09-06T13:20:57.055Z,31.40
2022-09-06T13:23:23.778Z,31.30
2022-09-06T13:25:51.844Z,31.30
2022-09-06T13:28:29.472Z,31.40
2022-09-06T13:31:03.550Z,31.40
2022-09-06T13:33:30.478Z,31.50
2022-09-06T13:36:08.430Z,31.50
2022-09-06T13:38:37.888Z,31.40
2022-09-06T13:41:12.469Z,31.30
2022-09-06T13:43:45.281Z,31.10
2022-09-06T13:46:12.237Z,31.00
2022-09-06T13:48:44.557Z,30.90
2022-09-06T13:51:11.656Z,31.00
2022-09-06T13:53:38.396Z,31.00
2022-09-06T13:56:08.779Z,31.00
2022-09-06T13:58:39.097Z,31.00
2022-09-06T14:01:09.963Z,31.00
2022-09-06T14:03:39.909Z,30.90
2022-09-06T14:06:08.047Z,30.90
2022-09-06T14:09:02.919Z,31.00
2022-09-06T14:11:24.017Z,31.10
2022-09-06T14:13:50.845Z,31.10
2022-09-06T14:16:17.692Z,31.00
2022-09-06T14:18:45.204Z,31.10
2022-09-06T14:21:12.154Z,31.10
2022-09-06T14:23:39.352Z,31.10
2022-09-06T14:26:06.207Z,31.00
2022-09-06T14:28:33.881Z,31.00
2022-09-06T14:31:30.287Z,31.00
2022-09-06T14:33:57.399Z,30.90
2022-09-06T14:36:29.280Z,30.90
2022-09-06T14:38:57.280Z,30.90
2022-09-06T14:41:24.247Z,30.90
2022-09-06T14:43:51.868Z,31.00
2022-09-06T14:46:19.459Z,31.00
2022-09-06T14:48:46.352Z,31.00
2022-09-06T14:51:24.059Z,31.00
2022-09-06T14:53:52.388Z,31.00
2022-09-06T14:56:22.275Z,31.00
2022-09-06T14:58:49.250Z,30.90
2022-09-06T15:01:16.039Z,30.80
2022-09-06T15:03:44.077Z,30.60
2022-09-06T15:06:11.001Z,30.50
2022-09-06T15:08:38.115Z,30.40
2022-09-06T15:11:07.630Z,30.30
2022-09-06T15:13:36.381Z,30.20
2022-09-06T15:16:04.144Z,30.30
2022-09-06T15:18:30.869Z,30.40
2022-09-06T15:20:57.625Z,30.40
2022-09-06T15:23:26.717Z,30.30
2022-09-06T15:25:54.188Z,30.30
2022-09-06T15:28:21.155Z,30.20
2022-09-06T15:30:48.042Z,30.10
2022-09-06T15:33:15.161Z,30.00
2022-09-06T15:35:43.097Z,30.00
2022-09-06T15:38:10.776Z,29.90
2022-09-06T15:40:38.138Z,29.90
2022-09-06T15:43:05.286Z,29.90
2022-09-06T15:45:37.593Z,29.90
2022-09-06T15:48:04.480Z,29.90
2022-09-06T15:50:50.408Z,29.90
2022-09-06T15:53:17.917Z,29.90
2022-09-06T15:55:56.521Z,29.90
2022-09-06T15:58:26.813Z,29.90
2022-09-06T16:01:04.367Z,29.90
2022-09-06T16:03:31.412Z,29.80
2022-09-06T16:08:52.235Z,29.70
2022-09-06T16:11:19.429Z,29.60
2022-09-06T16:13:46.268Z,29.60
2022-09-06T16:16:14.977Z,29.60
2022-09-06T16:18:42.759Z,29.50
2022-09-06T16:21:14.147Z,29.40
2022-09-06T16:23:41.457Z,29.30
2022-09-06T16:26:08.800Z,29.30
2022-09-06T16:28:37.134Z,29.20
2022-09-06T16:31:04.933Z,29.10
2022-09-06T16:33:32.528Z,29.10
2022-09-06T16:36:00.292Z,29.10
2022-09-06T16:38:31.884Z,29.10
2022-09-06T16:41:01.092Z,29.00
2022-09-06T16:43:28.684Z,29.00
2022-09-06T16:46:00.692Z,28.90
2022-09-06T16:48:28.805Z,28.90
2022-09-06T16:50:55.678Z,28.80
2022-09-06T16:53:23.811Z,28.70
2022-09-06T16:55:51.086Z,28.50
2022-09-06T16:58:17.859Z,28.50
2022-09-06T17:00:45.040Z,28.40
2022-09-06T17:03:15.281Z,28.40
2022-09-06T17:05:42.151Z,28.30
2022-09-06T17:08:09.975Z,28.20
2022-09-06T17:10:39.929Z,28.10
2022-09-06T17:13:07.123Z,28.10
2022-09-06T17:15:53.888Z,28.00
2022-09-06T17:18:22.144Z,27.90
2022-09-06T17:21:00.797Z,27.80
2022-09-06T17:23:28.777Z,27.70
2022-09-06T17:25:55.563Z,27.60
2022-09-06T17:28:23.336Z,27.50
2022-09-06T17:30:52.000Z,27.50
2022-09-06T17:33:19.395Z,27.40
2022-09-06T17:35:46.538Z,27.40
2022-09-06T17:38:13.856Z,27.40
2022-09-06T17:40:40.605Z,27.40
2022-09-06T17:43:07.470Z,27.30
2022-09-06T17:45:42.632Z,27.30
2022-09-06T17:48:09.528Z,27.30
2022-09-06T17:50:36.718Z,27.20
2022-09-06T17:53:03.615Z,27.20
2022-09-06T17:55:30.849Z,27.10
2022-09-06T17:57:58.487Z,27.00
2022-09-06T18:00:26.141Z,27.00
2022-09-06T18:02:53.033Z,26.90
2022-09-06T18:05:19.930Z,26.90
2022-09-06T18:07:47.450Z,26.80
2022-09-06T18:10:15.081Z,26.80
2022-09-06T18:12:42.265Z,26.70
2022-09-06T18:15:09.411Z,26.60
2022-09-06T18:17:36.189Z,26.60
2022-09-06T18:20:03.685Z,26.50
2022-09-06T18:22:30.549Z,26.50
2022-09-06T18:24:58.422Z,26.40
2022-09-06T18:27:25.819Z,26.30
2022-09-06T18:29:52.627Z,26.30
2022-09-06T18:32:19.423Z,26.20
2022-09-06T18:34:46.195Z,26.10
2022-09-06T18:37:13.045Z,26.10
2022-09-06T18:39:41.906Z,26.00
2022-09-06T18:42:11.301Z,26.00
2022-09-06T18:44:38.901Z,25.90
2022-09-06T18:47:07.366Z,25.80
2022-09-06T18:49:34.940Z,25.80
2022-09-06T18:52:05.518Z,25.80
2022-09-06T18:54:33.059Z,25.70
2022-09-06T18:57:00.089Z,25.70
2022-09-06T18:59:27.076Z,25.60
2022-09-06T19:01:53.939Z,25.60
2022-09-06T19:04:20.792Z,25.60
2022-09-06T19:06:47.612Z,25.60
2022-09-06T19:09:15.514Z,25.50
2022-09-06T19:11:43.489Z,25.50
2022-09-06T19:14:10.284Z,25.50
2022-09-06T19:16:37.451Z,25.40
2022-09-06T19:19:08.419Z,25.40
2022-09-06T19:21:39.329Z,25.30
2022-09-06T19:24:08.436Z,25.30
2022-09-06T19:26:36.682Z,25.20
2022-09-06T19:29:08.924Z,25.10
2022-09-06T19:31:37.182Z,25.10
2022-09-06T19:34:04.210Z,25.10
2022-09-06T19:36:31.958Z,25.00
2022-09-06T19:39:03.544Z,25.10
2022-09-06T19:41:32.305Z,25.00
2022-09-06T19:43:59.195Z,25.00
2022-09-06T19:46:26.681Z,25.00
2022-09-06T19:48:54.167Z,25.00
2022-09-06T19:51:20.978Z,24.90
2022-09-06T19:53:49.812Z,24.80
2022-09-06T19:56:18.525Z,24.70
2022-09-06T19:58:45.395Z,24.70
2022-09-06T20:01:13.265Z,24.60
2022-09-06T20:03:42.037Z,24.50
2022-09-06T20:06:09.352Z,24.50
2022-09-06T20:08:36.923Z,24.50
2022-09-06T20:11:04.808Z,24.40
2022-09-06T20:13:31.850Z,24.40
2022-09-06T20:15:58.663Z,24.40
2022-09-06T20:18:26.108Z,24.30
2022-09-06T20:20:53.998Z,24.30
2022-09-06T20:23:20.883Z,24.20
2022-09-06T20:25:47.971Z,24.20
2022-09-06T20:28:15.319Z,24.20
2022-09-06T20:30:42.854Z,24.20
2022-09-06T20:33:10.451Z,24.20
2022-09-06T20:35:37.221Z,24.30
2022-09-06T20:38:03.977Z,24.30
2022-09-06T20:40:30.902Z,24.40
2022-09-06T20:42:57.654Z,24.40
2022-09-06T20:45:25.366Z,24.40
2022-09-06T20:47:52.358Z,24.30
2022-09-06T20:50:19.113Z,24.30
2022-09-06T20:52:45.870Z,24.00
2022-09-06T20:55:12.649Z,23.70
2022-09-06T20:57:39.443Z,23.60
2022-09-06T21:00:06.558Z,23.50
2022-09-06T21:02:33.305Z,23.50
2022-09-06T21:05:00.571Z,23.50
2022-09-06T21:07:27.373Z,23.70
2022-09-06T21:09:54.130Z,23.80
2022-09-06T21:12:20.865Z,23.90
2022-09-06T21:14:48.447Z,24.00
2022-09-06T21:17:15.206Z,24.00
2022-09-06T21:19:42.006Z,23.90
2022-09-06T21:22:08.854Z,23.80
2022-09-06T21:24:35.717Z,23.60
2022-09-06T21:27:02.482Z,23.50
2022-09-06T21:29:29.234Z,23.40
2022-09-06T21:31:56.251Z,23.40
2022-09-06T21:34:23.167Z,23.30
2022-09-06T21:36:50.233Z,23.20
2022-09-06T21:39:17.115Z,23.10
2022-09-06T21:41:44.107Z,23.00
2022-09-06T21:44:11.261Z,23.00
2022-09-06T21:46:38.888Z,23.10
2022-09-06T21:49:07.395Z,23.00
2022-09-06T21:51:34.734Z,23.00
2022-09-06T21:54:04.874Z,23.00
2022-09-06T21:56:34.016Z,22.90
2022-09-06T21:59:01.018Z,22.90
2022-09-06T22:01:29.351Z,22.90
2022-09-06T22:03:56.257Z,22.90
2022-09-06T22:06:24.882Z,22.80
2022-09-06T22:08:52.193Z,22.80
2022-09-06T22:11:20.407Z,22.80
2022-09-06T22:13:47.593Z,22.80
2022-09-06T22:16:15.536Z,22.70
2022-09-06T22:18:42.783Z,22.70
2022-09-06T22:21:11.109Z,22.60
2022-09-06T22:23:39.154Z,22.60
2022-09-06T22:26:07.452Z,22.50
2022-09-06T22:28:34.479Z,22.50
2022-09-06T22:31:01.842Z,22.50
2022-09-06T22:33:28.912Z,22.50
2022-09-06T22:35:55.704Z,22.50
2022-09-06T22:38:22.438Z,22.50
2022-09-06T22:40:49.325Z,22.50
2022-09-06T22:43:16.271Z,22.40
2022-09-06T22:45:48.651Z,22.50
2022-09-06T22:48:18.512Z,22.50
2022-09-06T22:50:45.242Z,22.50
2022-09-06T22:53:12.102Z,22.50
2022-09-06T22:55:38.798Z,22.40
2022-09-06T22:58:06.163Z,22.30
2022-09-06T23:00:35.983Z,22.30
2022-09-06T23:03:02.962Z,22.30
2022-09-06T23:05:30.804Z,22.30
2022-09-06T23:07:57.983Z,22.20
2022-09-06T23:10:24.740Z,22.20
2022-09-06T23:12:52.076Z,22.20
2022-09-06T23:15:18.839Z,22.20
2022-09-06T23:17:45.626Z,22.20
2022-09-06T23:20:12.517Z,22.30
2022-09-06T23:22:39.769Z,22.30
2022-09-06T23:25:08.738Z,22.20
2022-09-06T23:27:35.461Z,22.20
2022-09-06T23:30:03.295Z,22.20
2022-09-06T23:32:31.375Z,22.10
2022-09-06T23:34:58.130Z,21.70
2022-09-06T23:37:24.871Z,21.10
2022-09-06T23:42:22.997Z,19.80
2022-09-06T23:44:51.278Z,19.70
2022-09-06T23:47:18.016Z,19.40
2022-09-06T23:49:45.487Z,19.20
2022-09-06T23:52:12.904Z,19.00
2022-09-06T23:54:41.352Z,18.80
2022-09-06T23:57:08.702Z,18.70
2022-09-06T23:59:36.161Z,18.40
